Time;durP1;ratioP1;P1;durP2;ratioP2;P2;SDS_P1;SDS_P2;PMS_P1;PMS_P2;Temp;Humidity;BMP_temperature;BMP_pressure;BME280_temperature;BME280_humidity;BME280_pressure;Samples;Min_cycle;Max_cycle;Signal;HPM_P1;HPM_P2
2023/05/25 00:00:07;;;;;;;;;6.67;5.00;;;;;;;;4949526;28;47465;-74
2023/05/25 00:02:33;;;;;;;;;10.00;7.33;;;;;;;;4950225;28;45549;-74
2023/05/25 00:04:59;;;;;;;;;6.67;6.33;;;;;;;;4950652;28;45511;-74
2023/05/25 00:07:25;;;;;;;;;9.33;8.33;;;;;;;;4948852;28;45925;-75
2023/05/25 00:09:50;;;;;;;;;7.33;6.67;;;;;;;;4952225;28;46590;-74
2023/05/25 00:12:15;;;;;;;;;5.00;5.00;;;;;;;;4953884;28;45513;-75
2023/05/25 00:14:41;;;;;;;;;8.67;8.67;;;;;;;;4951148;28;45735;-74
2023/05/25 00:17:08;;;;;;;;;8.33;5.00;;;;;;;;4941886;28;45473;-73
2023/05/25 00:19:33;;;;;;;;;7.67;6.00;;;;;;;;4952632;28;45516;-75
2023/05/25 00:22:01;;;;;;;;;8.00;5.67;;;;;;;;4947462;28;45991;-73
2023/05/25 00:24:26;;;;;;;;;10.00;9.33;;;;;;;;4949646;28;45751;-74
2023/05/25 00:26:51;;;;;;;;;7.67;6.67;;;;;;;;4948608;28;45525;-73
2023/05/25 00:29:16;;;;;;;;;6.67;6.33;;;;;;;;4943989;28;46840;-74
2023/05/25 00:31:42;;;;;;;;;9.00;7.33;;;;;;;;4955908;28;45764;-73
2023/05/25 00:34:07;;;;;;;;;9.33;7.33;;;;;;;;4946862;28;45501;-74
2023/05/25 00:36:32;;;;;;;;;8.33;8.00;;;;;;;;4949239;28;45347;-72
2023/05/25 00:38:57;;;;;;;;;9.67;6.33;;;;;;;;4947213;28;45378;-74
2023/05/25 00:41:24;;;;;;;;;10.33;8.33;;;;;;;;4952330;28;45535;-72
2023/05/25 00:43:50;;;;;;;;;10.00;8.67;;;;;;;;4952160;28;45703;-72
2023/05/25 00:46:15;;;;;;;;;5.67;5.33;;;;;;;;4952337;28;45621;-72
2023/05/25 00:48:41;;;;;;;;;13.67;11.33;;;;;;;;4948499;28;45808;-72
2023/05/25 00:51:08;;;;;;;;;9.67;5.00;;;;;;;;4949287;28;45528;-70
2023/05/25 00:53:35;;;;;;;;;12.67;9.00;;;;;;;;4941598;28;45781;-73
2023/05/25 00:56:02;;;;;;;;;12.67;11.33;;;;;;;;4950522;28;45617;-72
2023/05/25 00:58:29;;;;;;;;;12.33;9.67;;;;;;;;4948568;28;47909;-72
2023/05/25 01:00:56;;;;;;;;;12.00;11.00;;;;;;;;4951929;28;45725;-72
2023/05/25 01:03:26;;;;;;;;;12.67;11.67;;;;;;;;4942180;28;45932;-72
2023/05/25 01:05:53;;;;;;;;;11.00;9.00;;;;;;;;4939804;28;46296;-72
2023/05/25 01:08:19;;;;;;;;;10.00;10.00;;;;;;;;4960691;28;45340;-73
2023/05/25 01:10:47;;;;;;;;;10.00;10.00;;;;;;;;4951745;28;45715;-71
2023/05/25 01:13:13;;;;;;;;;12.00;11.00;;;;;;;;4949671;28;45529;-71
2023/05/25 01:15:38;;;;;;;;;13.00;11.67;;;;;;;;4946527;28;46065;-72
2023/05/25 01:18:04;;;;;;;;;17.00;12.00;;;;;;;;4954476;28;46188;-72
2023/05/25 01:20:29;;;;;;;;;12.67;11.67;;;;;;;;4949878;28;45741;-73
2023/05/25 01:22:54;;;;;;;;;17.33;13.33;;;;;;;;4949219;28;45386;-75
2023/05/25 01:25:29;;;;;;;;;12.00;11.33;;;;;;;;4956021;28;45665;-73
2023/05/25 01:28:01;;;;;;;;;9.33;8.67;;;;;;;;4943596;28;46340;-73
2023/05/25 01:30:27;;;;;;;;;12.67;11.00;;;;;;;;4953224;28;45686;-73
2023/05/25 01:32:52;;;;;;;;;18.33;12.67;;;;;;;;4945267;28;45523;-73
2023/05/25 01:35:19;;;;;;;;;17.00;13.00;;;;;;;;4944532;28;45769;-71
2023/05/25 01:37:48;;;;;;;;;16.67;13.67;;;;;;;;4944737;28;46717;-73
2023/05/25 01:40:14;;;;;;;;;11.00;10.00;;;;;;;;4932918;28;45467;-73
2023/05/25 01:42:39;;;;;;;;;13.67;13.33;;;;;;;;4936357;28;45859;-73
2023/05/25 01:45:05;;;;;;;;;16.33;14.33;;;;;;;;4942621;28;45782;-71
2023/05/25 01:47:33;;;;;;;;;15.00;13.67;;;;;;;;4950461;28;45381;-73
2023/05/25 01:50:01;;;;;;;;;17.67;14.00;;;;;;;;4964419;28;45509;-73
2023/05/25 01:52:44;;;;;;;;;19.67;12.00;;;;;;;;4946459;28;45411;-74
2023/05/25 01:55:14;;;;;;;;;11.00;11.00;;;;;;;;4953803;28;46043;-72
2023/05/25 01:57:42;;;;;;;;;12.33;10.00;;;;;;;;4951165;28;46657;-72
2023/05/25 02:00:08;;;;;;;;;15.33;11.67;;;;;;;;4949558;28;45430;-72
2023/05/25 02:02:35;;;;;;;;;17.00;14.33;;;;;;;;4937646;28;45485;-73
2023/05/25 02:05:00;;;;;;;;;18.00;13.33;;;;;;;;4947701;28;45989;-75
2023/05/25 02:07:25;;;;;;;;;13.00;11.67;;;;;;;;4950045;28;46057;-75
2023/05/25 02:09:51;;;;;;;;;15.33;12.33;;;;;;;;4943140;28;46112;-72
2023/05/25 02:12:16;;;;;;;;;16.33;14.33;;;;;;;;4948271;28;45741;-74
2023/05/25 02:14:41;;;;;;;;;17.67;14.33;;;;;;;;4947443;28;45967;-78
2023/05/25 02:17:07;;;;;;;;;15.67;13.67;;;;;;;;4946849;28;46540;-73
2023/05/25 02:19:34;;;;;;;;;16.67;13.00;;;;;;;;4945645;28;45637;-72
2023/05/25 02:21:59;;;;;;;;;14.67;13.00;;;;;;;;4953872;28;45896;-72
2023/05/25 02:24:24;;;;;;;;;19.33;16.33;;;;;;;;4953596;28;45815;-71
2023/05/25 02:26:50;;;;;;;;;14.00;12.33;;;;;;;;4951939;28;45421;-73
2023/05/25 02:29:16;;;;;;;;;15.00;13.67;;;;;;;;4955018;28;45890;-72
2023/05/25 02:31:41;;;;;;;;;13.33;10.33;;;;;;;;4949117;28;45414;-77
2023/05/25 02:34:06;;;;;;;;;17.00;15.00;;;;;;;;4955329;28;45866;-80
2023/05/25 02:36:33;;;;;;;;;18.33;14.33;;;;;;;;4959600;28;46948;-72
2023/05/25 02:38:59;;;;;;;;;15.67;13.33;;;;;;;;4951440;28;45606;-71
2023/05/25 02:41:25;;;;;;;;;19.00;14.00;;;;;;;;4953326;28;45738;-72
2023/05/25 02:43:50;;;;;;;;;12.67;11.00;;;;;;;;4949898;28;45479;-71
2023/05/25 02:46:16;;;;;;;;;17.00;14.00;;;;;;;;4953128;28;45844;-71
2023/05/25 02:48:42;;;;;;;;;8.00;5.33;;;;;;;;4947338;28;45938;-72
2023/05/25 02:51:07;;;;;;;;;10.67;9.00;;;;;;;;4957749;28;45375;-72
2023/05/25 02:53:32;;;;;;;;;15.67;12.33;;;;;;;;4954996;28;45714;-73
2023/05/25 02:55:59;;;;;;;;;18.00;13.00;;;;;;;;4950384;28;45571;-73
2023/05/25 02:58:24;;;;;;;;;16.00;13.67;;;;;;;;4948448;28;45526;-73
2023/05/25 03:00:51;;;;;;;;;14.00;10.00;;;;;;;;4963760;28;45521;-72
2023/05/25 03:03:16;;;;;;;;;11.33;11.00;;;;;;;;4953014;28;46277;-73
2023/05/25 03:05:41;;;;;;;;;10.33;7.67;;;;;;;;4954075;28;46519;-72
2023/05/25 03:08:06;;;;;;;;;12.67;10.67;;;;;;;;4947863;28;45650;-75
2023/05/25 03:10:32;;;;;;;;;10.33;9.00;;;;;;;;4948567;28;45472;-72
2023/05/25 03:12:57;;;;;;;;;11.33;8.00;;;;;;;;4952242;28;46022;-72
2023/05/25 03:15:22;;;;;;;;;7.67;6.67;;;;;;;;4947794;28;45868;-72
2023/05/25 03:17:47;;;;;;;;;12.00;10.50;;;;;;;;4953513;28;45894;-74
2023/05/25 03:20:14;;;;;;;;;15.67;12.67;;;;;;;;4953285;28;45447;-72
2023/05/25 03:22:40;;;;;;;;;14.67;12.67;;;;;;;;4937578;28;46344;-71
2023/05/25 03:25:05;;;;;;;;;11.67;10.00;;;;;;;;4950513;28;47043;-73
2023/05/25 03:27:31;;;;;;;;;11.33;11.33;;;;;;;;4951849;28;45430;-74
2023/05/25 03:29:56;;;;;;;;;9.00;8.00;;;;;;;;4948710;28;45435;-73
2023/05/25 03:32:22;;;;;;;;;13.67;11.33;;;;;;;;4943163;28;46219;-74
2023/05/25 03:34:48;;;;;;;;;15.33;13.00;;;;;;;;4955909;28;46144;-74
2023/05/25 03:37:13;;;;;;;;;17.00;12.00;;;;;;;;4940923;28;45790;-73
2023/05/25 03:39:38;;;;;;;;;15.33;10.67;;;;;;;;4949177;28;46498;-74
2023/05/25 03:42:05;;;;;;;;;15.67;13.00;;;;;;;;4947091;28;45937;-74
2023/05/25 03:44:30;;;;;;;;;22.00;15.67;;;;;;;;4943164;28;47234;-74
2023/05/25 03:46:55;;;;;;;;;12.00;11.33;;;;;;;;4950306;28;45873;-74
2023/05/25 03:49:20;;;;;;;;;12.67;12.67;;;;;;;;4950038;28;45713;-73
2023/05/25 03:51:45;;;;;;;;;14.33;11.67;;;;;;;;4945691;28;45445;-73
2023/05/25 03:54:11;;;;;;;;;18.33;14.67;;;;;;;;4950275;28;45465;-75
2023/05/25 03:56:36;;;;;;;;;19.67;13.00;;;;;;;;4956722;28;45812;-73
2023/05/25 03:59:01;;;;;;;;;18.33;13.67;;;;;;;;4953120;28;45650;-72
2023/05/25 04:01:28;;;;;;;;;17.00;15.00;;;;;;;;4945852;28;45798;-73
2023/05/25 04:03:54;;;;;;;;;18.00;13.33;;;;;;;;4946136;28;45718;-75
2023/05/25 04:06:20;;;;;;;;;17.00;13.33;;;;;;;;4953222;28;45839;-74
2023/05/25 04:08:45;;;;;;;;;16.33;13.33;;;;;;;;4952184;28;45805;-74
2023/05/25 04:11:10;;;;;;;;;11.67;10.33;;;;;;;;4950177;28;45732;-74
2023/05/25 04:13:36;;;;;;;;;19.00;15.00;;;;;;;;4952892;28;45447;-75
2023/05/25 04:16:01;;;;;;;;;13.00;11.00;;;;;;;;4946391;28;45530;-74
2023/05/25 04:18:26;;;;;;;;;23.00;17.67;;;;;;;;4944270;28;45365;-73
2023/05/25 04:20:52;;;;;;;;;12.00;11.00;;;;;;;;4960606;28;47245;-75
2023/05/25 04:23:18;;;;;;;;;15.33;15.33;;;;;;;;4951870;28;47463;-73
2023/05/25 04:25:44;;;;;;;;;19.33;12.00;;;;;;;;4939352;28;46405;-74
2023/05/25 04:28:11;;;;;;;;;14.00;12.33;;;;;;;;4944158;28;45572;-73
2023/05/25 04:30:36;;;;;;;;;17.00;11.67;;;;;;;;4939576;28;45828;-72
2023/05/25 04:33:02;;;;;;;;;13.67;10.33;;;;;;;;4939301;28;45926;-74
2023/05/25 04:35:27;;;;;;;;;15.67;14.33;;;;;;;;4954618;28;45958;-74
2023/05/25 04:37:53;;;;;;;;;14.33;13.33;;;;;;;;4942102;28;45766;-72
2023/05/25 04:40:20;;;;;;;;;13.67;12.00;;;;;;;;4951044;28;45637;-74
2023/05/25 04:42:46;;;;;;;;;15.33;13.67;;;;;;;;4944278;28;45767;-74
2023/05/25 04:45:16;;;;;;;;;13.00;10.00;;;;;;;;4949015;28;45790;-73
2023/05/25 04:47:41;;;;;;;;;13.33;12.67;;;;;;;;4957636;28;45603;-74
2023/05/25 04:50:08;;;;;;;;;18.33;14.00;;;;;;;;4938637;28;46141;-73
2023/05/25 04:52:33;;;;;;;;;9.00;5.00;;;;;;;;4947367;28;47318;-73
2023/05/25 04:54:59;;;;;;;;;11.00;11.00;;;;;;;;4945749;28;46674;-73
2023/05/25 04:57:26;;;;;;;;;17.00;9.33;;;;;;;;4943292;28;45583;-74
2023/05/25 04:59:54;;;;;;;;;14.00;10.33;;;;;;;;4952073;28;45547;-83
2023/05/25 05:02:19;;;;;;;;;18.33;13.33;;;;;;;;4949173;28;45726;-72
2023/05/25 05:04:45;;;;;;;;;16.00;14.00;;;;;;;;4947195;28;45821;-73
2023/05/25 05:07:10;;;;;;;;;15.00;11.67;;;;;;;;4957519;28;45753;-72
2023/05/25 05:09:35;;;;;;;;;13.00;11.33;;;;;;;;4948141;28;45770;-75
2023/05/25 05:12:01;;;;;;;;;13.00;10.00;;;;;;;;4944013;28;46263;-75
2023/05/25 05:14:27;;;;;;;;;15.00;15.00;;;;;;;;4947181;28;45670;-72
2023/05/25 05:16:52;;;;;;;;;14.00;12.00;;;;;;;;4942566;28;45446;-72
2023/05/25 05:19:17;;;;;;;;;15.67;10.00;;;;;;;;4945187;28;46213;-73
2023/05/25 05:21:42;;;;;;;;;13.33;11.00;;;;;;;;4939465;28;45940;-76
2023/05/25 05:24:08;;;;;;;;;21.33;14.33;;;;;;;;4952204;28;45956;-72
2023/05/25 05:26:33;;;;;;;;;12.33;9.33;;;;;;;;4948782;28;45469;-76
2023/05/25 05:28:58;;;;;;;;;18.00;12.00;;;;;;;;4943683;28;45948;-77
2023/05/25 05:31:26;;;;;;;;;15.00;12.00;;;;;;;;4951903;28;45939;-74
2023/05/25 05:33:51;;;;;;;;;16.67;13.33;;;;;;;;4953700;28;45639;-76
2023/05/25 05:36:16;;;;;;;;;13.00;9.00;;;;;;;;4955820;28;45633;-76
2023/05/25 05:38:45;;;;;;;;;16.33;10.00;;;;;;;;4956455;28;45827;-75
2023/05/25 05:41:13;;;;;;;;;15.00;11.33;;;;;;;;4940580;28;46101;-76
2023/05/25 05:43:40;;;;;;;;;11.33;7.67;;;;;;;;4960310;28;45559;-76
2023/05/25 05:46:06;;;;;;;;;12.00;9.00;;;;;;;;4953891;28;45397;-76
2023/05/25 05:48:31;;;;;;;;;11.33;10.00;;;;;;;;4954312;28;45761;-77
2023/05/25 05:50:56;;;;;;;;;17.67;13.33;;;;;;;;4957971;28;47886;-76
2023/05/25 05:53:22;;;;;;;;;10.67;9.00;;;;;;;;4943769;28;45803;-76
2023/05/25 05:55:47;;;;;;;;;14.33;14.00;;;;;;;;4949254;28;45435;-78
2023/05/25 05:58:12;;;;;;;;;18.33;14.33;;;;;;;;4954698;28;45561;-77
2023/05/25 06:00:37;;;;;;;;;9.00;7.33;;;;;;;;4956418;28;47221;-78
2023/05/25 06:03:03;;;;;;;;;14.67;11.33;;;;;;;;4966427;28;45470;-78
2023/05/25 06:05:28;;;;;;;;;12.67;9.00;;;;;;;;4949960;28;45269;-76
2023/05/25 06:07:53;;;;;;;;;12.67;11.33;;;;;;;;4961858;28;45715;-75
2023/05/25 06:10:18;;;;;;;;;15.33;11.33;;;;;;;;4950413;28;45768;-76
2023/05/25 06:12:44;;;;;;;;;14.00;10.67;;;;;;;;4947955;28;45406;-76
2023/05/25 06:15:09;;;;;;;;;10.33;10.33;;;;;;;;4944899;28;45896;-76
2023/05/25 06:17:42;;;;;;;;;9.67;6.67;;;;;;;;4956077;28;45681;-81
2023/05/25 06:20:07;;;;;;;;;11.33;11.00;;;;;;;;4954617;28;46715;-76
2023/05/25 06:22:32;;;;;;;;;16.00;11.33;;;;;;;;4949164;28;45873;-75
2023/05/25 06:24:57;;;;;;;;;14.00;10.00;;;;;;;;4940683;28;45787;-73
2023/05/25 06:27:23;;;;;;;;;14.00;12.00;;;;;;;;4956344;28;45428;-74
2023/05/25 06:29:48;;;;;;;;;9.67;9.67;;;;;;;;4957033;28;46179;-73
2023/05/25 06:32:13;;;;;;;;;5.00;3.00;;;;;;;;4959737;28;45628;-75
2023/05/25 06:34:38;;;;;;;;;14.67;11.67;;;;;;;;4945105;28;45394;-75
2023/05/25 06:37:04;;;;;;;;;13.67;11.33;;;;;;;;4947986;28;45628;-75
2023/05/25 06:39:29;;;;;;;;;15.33;14.33;;;;;;;;4946095;28;45833;-75
2023/05/25 06:41:55;;;;;;;;;18.33;15.00;;;;;;;;4944363;28;45894;-75
2023/05/25 06:44:20;;;;;;;;;11.33;10.00;;;;;;;;4942212;28;45617;-77
2023/05/25 06:46:45;;;;;;;;;18.67;13.67;;;;;;;;4949017;28;47561;-77
2023/05/25 06:49:11;;;;;;;;;13.67;11.00;;;;;;;;4941437;28;46468;-78
2023/05/25 06:51:36;;;;;;;;;13.00;8.33;;;;;;;;4944269;28;45793;-76
2023/05/25 06:54:02;;;;;;;;;14.00;9.33;;;;;;;;4939277;28;45613;-76
2023/05/25 06:56:27;;;;;;;;;13.33;11.33;;;;;;;;4945109;28;46791;-75
2023/05/25 06:58:53;;;;;;;;;16.00;11.67;;;;;;;;4952310;28;45984;-76
2023/05/25 07:01:18;;;;;;;;;14.25;10.50;;;;;;;;4954542;28;45845;-76
2023/05/25 07:03:43;;;;;;;;;13.00;11.33;;;;;;;;4945584;28;45618;-76
2023/05/25 07:06:10;;;;;;;;;10.75;9.00;;;;;;;;4940831;28;45408;-75
2023/05/25 07:08:36;;;;;;;;;11.00;9.67;;;;;;;;4951733;28;47173;-76
2023/05/25 07:11:01;;;;;;;;;9.67;8.00;;;;;;;;4945342;28;45723;-75
2023/05/25 07:13:26;;;;;;;;;13.00;10.33;;;;;;;;4952432;28;45452;-75
2023/05/25 07:15:51;;;;;;;;;13.00;9.33;;;;;;;;4949529;28;46350;-76
2023/05/25 07:18:17;;;;;;;;;9.25;8.75;;;;;;;;4948454;28;45752;-74
2023/05/25 07:20:45;;;;;;;;;11.75;9.00;;;;;;;;4944137;28;45587;-74
2023/05/25 07:23:10;;;;;;;;;9.50;5.25;;;;;;;;4950014;28;45681;-76
2023/05/25 07:25:39;;;;;;;;;10.75;10.25;;;;;;;;4947515;28;45844;-77
2023/05/25 07:28:05;;;;;;;;;10.25;7.75;;;;;;;;4952059;28;45871;-74
2023/05/25 07:30:30;;;;;;;;;7.00;7.00;;;;;;;;4953420;28;45771;-74
2023/05/25 07:32:57;;;;;;;;;11.25;10.25;;;;;;;;4953316;28;46689;-76
2023/05/25 07:35:22;;;;;;;;;9.00;7.75;;;;;;;;4955442;28;45560;-75
2023/05/25 07:37:55;;;;;;;;;7.75;7.75;;;;;;;;4946325;28;46482;-76
2023/05/25 07:40:20;;;;;;;;;18.25;15.25;;;;;;;;4954034;28;45821;-77
2023/05/25 07:42:45;;;;;;;;;18.67;16.00;;;;;;;;4959669;28;45644;-75
2023/05/25 07:45:11;;;;;;;;;23.00;17.67;;;;;;;;4943977;28;47029;-75
2023/05/25 07:47:36;;;;;;;;;16.00;10.75;;;;;;;;4952285;28;47414;-74
2023/05/25 07:50:02;;;;;;;;;9.00;6.00;;;;;;;;4959999;28;45395;-75
2023/05/25 07:52:27;;;;;;;;;7.50;7.00;;;;;;;;4953039;28;45746;-75
2023/05/25 07:54:52;;;;;;;;;7.75;4.25;;;;;;;;4945891;28;45845;-76
2023/05/25 07:57:17;;;;;;;;;6.50;4.75;;;;;;;;4953347;28;45428;-76
2023/05/25 07:59:43;;;;;;;;;2.00;1.00;;;;;;;;4955085;28;45671;-76
2023/05/25 08:02:08;;;;;;;;;13.00;7.00;;;;;;;;4951025;28;45798;-75
2023/05/25 08:04:34;;;;;;;;;5.00;3.50;;;;;;;;4952426;28;45805;-76
2023/05/25 08:07:00;;;;;;;;;7.50;5.00;;;;;;;;4957056;28;46092;-76
2023/05/25 08:09:25;;;;;;;;;5.00;4.25;;;;;;;;4937253;28;45391;-74
2023/05/25 08:11:50;;;;;;;;;7.00;5.75;;;;;;;;4952931;28;45370;-76
2023/05/25 08:14:16;;;;;;;;;6.25;5.00;;;;;;;;4959545;28;45493;-76
2023/05/25 08:16:41;;;;;;;;;3.50;3.50;;;;;;;;4943359;28;45808;-76
2023/05/25 08:19:06;;;;;;;;;10.50;5.00;;;;;;;;4952068;28;46085;-76
2023/05/25 08:21:33;;;;;;;;;5.25;3.50;;;;;;;;4947050;28;45793;-75
2023/05/25 08:24:02;;;;;;;;;7.50;5.75;;;;;;;;4947420;28;46940;-75
2023/05/25 08:26:28;;;;;;;;;7.75;4.25;;;;;;;;4960037;28;45803;-75
2023/05/25 08:28:53;;;;;;;;;3.00;3.00;;;;;;;;4945800;28;45553;-75
2023/05/25 08:31:18;;;;;;;;;9.25;5.75;;;;;;;;4957078;28;45698;-76
2023/05/25 08:33:43;;;;;;;;;7.50;5.75;;;;;;;;4948400;28;45691;-76
2023/05/25 08:36:09;;;;;;;;;5.50;5.50;;;;;;;;4950406;28;47192;-76
2023/05/25 08:38:34;;;;;;;;;7.00;5.75;;;;;;;;4952194;28;45797;-76
2023/05/25 08:41:04;;;;;;;;;7.00;4.50;;;;;;;;4949842;28;45371;-76
2023/05/25 08:43:30;;;;;;;;;5.00;4.50;;;;;;;;4962974;28;45998;-76
2023/05/25 08:45:58;;;;;;;;;5.50;5.00;;;;;;;;4952969;28;45446;-76
2023/05/25 08:48:24;;;;;;;;;5.00;5.00;;;;;;;;4952637;28;45715;-76
2023/05/25 08:50:51;;;;;;;;;5.00;4.00;;;;;;;;4952562;28;45962;-76
2023/05/25 08:53:17;;;;;;;;;4.50;2.50;;;;;;;;4951951;28;45433;-76
2023/05/25 08:55:43;;;;;;;;;5.50;4.25;;;;;;;;4943266;28;45899;-75
2023/05/25 08:58:15;;;;;;;;;6.25;4.75;;;;;;;;4946486;28;45409;-75
2023/05/25 09:00:49;;;;;;;;;8.50;4.00;;;;;;;;4945414;28;45410;-76
2023/05/25 09:03:16;;;;;;;;;3.25;3.25;;;;;;;;4951082;28;45567;-76
2023/05/25 09:05:42;;;;;;;;;10.50;4.50;;;;;;;;4952222;28;45507;-75
2023/05/25 09:08:07;;;;;;;;;4.25;4.00;;;;;;;;4946886;28;45765;-75
2023/05/25 09:10:39;;;;;;;;;8.00;3.75;;;;;;;;4959459;28;45942;-76
2023/05/25 09:13:04;;;;;;;;;5.75;4.50;;;;;;;;4950848;28;45486;-74
2023/05/25 09:15:31;;;;;;;;;5.50;4.25;;;;;;;;4951004;28;47197;-75
2023/05/25 09:17:57;;;;;;;;;5.25;4.75;;;;;;;;4951649;28;45477;-75
2023/05/25 09:20:22;;;;;;;;;7.00;4.75;;;;;;;;4952043;28;45774;-76
2023/05/25 09:22:47;;;;;;;;;5.50;3.25;;;;;;;;4948826;28;45983;-75
2023/05/25 09:25:16;;;;;;;;;5.25;5.00;;;;;;;;4956764;28;47373;-76
2023/05/25 09:27:41;;;;;;;;;6.25;4.25;;;;;;;;4952063;28;45361;-75
2023/05/25 09:30:07;;;;;;;;;1.75;1.75;;;;;;;;4951367;28;45779;-76
2023/05/25 09:32:32;;;;;;;;;5.75;5.00;;;;;;;;4952291;28;45598;-77
2023/05/25 09:35:08;;;;;;;;;5.00;4.00;;;;;;;;4960928;28;46847;-77
2023/05/25 09:37:34;;;;;;;;;7.00;4.25;;;;;;;;4940993;28;45815;-76
2023/05/25 09:39:59;;;;;;;;;7.00;4.00;;;;;;;;4952005;28;45360;-76
2023/05/25 09:42:24;;;;;;;;;3.00;3.00;;;;;;;;4954530;28;46115;-75
2023/05/25 09:44:50;;;;;;;;;6.75;3.00;;;;;;;;4956479;28;45708;-76
2023/05/25 09:47:16;;;;;;;;;1.00;0.00;;;;;;;;4950576;28;45711;-76
2023/05/25 09:49:43;;;;;;;;;2.75;2.75;;;;;;;;4950800;28;45457;-76
2023/05/25 09:52:08;;;;;;;;;3.75;3.00;;;;;;;;4952073;28;45935;-75
2023/05/25 09:54:34;;;;;;;;;7.00;5.25;;;;;;;;4964301;28;46351;-78
2023/05/25 09:57:02;;;;;;;;;3.00;3.00;;;;;;;;4944256;28;45645;-77
2023/05/25 09:59:27;;;;;;;;;2.00;2.00;;;;;;;;4948955;28;45547;-77
2023/05/25 10:01:53;;;;;;;;;6.00;4.50;;;;;;;;4942814;28;45544;-75
2023/05/25 10:04:18;;;;;;;;;4.25;3.00;;;;;;;;4950496;28;46199;-78
2023/05/25 10:06:45;;;;;;;;;5.75;2.75;;;;;;;;4957368;28;45650;-77
2023/05/25 10:09:13;;;;;;;;;3.50;3.50;;;;;;;;4948996;28;45964;-77
2023/05/25 10:11:42;;;;;;;;;3.50;3.50;;;;;;;;4949529;28;45853;-77
2023/05/25 10:14:08;;;;;;;;;3.25;1.00;;;;;;;;4952651;28;47085;-77
2023/05/25 10:16:33;;;;;;;;;6.25;5.00;;;;;;;;4943982;28;45502;-74
2023/05/25 10:19:06;;;;;;;;;3.00;2.00;;;;;;;;4949058;28;45747;-76
2023/05/25 10:21:32;;;;;;;;;3.00;2.50;;;;;;;;4951404;28;46020;-75
2023/05/25 10:24:05;;;;;;;;;4.00;4.00;;;;;;;;4957100;28;45506;-76
2023/05/25 10:26:32;;;;;;;;;6.25;3.00;;;;;;;;4951348;28;45726;-77
2023/05/25 10:29:00;;;;;;;;;6.75;5.00;;;;;;;;4947616;28;45500;-76
2023/05/25 10:31:28;;;;;;;;;3.25;3.25;;;;;;;;4948781;28;45547;-78
2023/05/25 10:33:54;;;;;;;;;2.50;2.50;;;;;;;;4954732;28;45467;-76
2023/05/25 10:36:20;;;;;;;;;5.50;5.00;;;;;;;;4946532;28;46064;-74
2023/05/25 10:38:46;;;;;;;;;2.25;2.00;;;;;;;;4945109;28;45868;-75
2023/05/25 10:41:14;;;;;;;;;4.25;3.00;;;;;;;;4946149;28;45562;-75
2023/05/25 10:43:40;;;;;;;;;5.25;5.25;;;;;;;;4953206;28;45455;-75
2023/05/25 10:46:05;;;;;;;;;4.75;3.00;;;;;;;;4946872;28;45675;-76
2023/05/25 10:48:34;;;;;;;;;3.00;3.00;;;;;;;;4945489;28;45948;-75
2023/05/25 10:50:59;;;;;;;;;4.00;3.75;;;;;;;;4939998;28;45995;-76
2023/05/25 10:53:25;;;;;;;;;6.00;4.75;;;;;;;;4945838;28;46451;-75
2023/05/25 10:55:50;;;;;;;;;6.50;4.25;;;;;;;;4945147;28;45700;-73
2023/05/25 10:58:16;;;;;;;;;3.50;3.00;;;;;;;;4952621;28;45652;-75
2023/05/25 11:00:41;;;;;;;;;2.00;2.00;;;;;;;;4952464;28;45742;-77
2023/05/25 11:03:07;;;;;;;;;6.25;3.75;;;;;;;;4958044;28;45935;-76
2023/05/25 11:05:33;;;;;;;;;5.50;3.75;;;;;;;;4947192;28;45633;-78
2023/05/25 11:08:03;;;;;;;;;6.50;6.50;;;;;;;;4960019;28;45949;-74
2023/05/25 11:10:47;;;;;;;;;9.00;6.00;;;;;;;;4940155;28;45878;-75
2023/05/25 11:13:27;;;;;;;;;5.00;3.75;;;;;;;;4937707;28;45842;-75
2023/05/25 11:16:20;;;;;;;;;5.75;4.75;;;;;;;;4944713;28;45831;-76
2023/05/25 11:18:53;;;;;;;;;7.75;6.50;;;;;;;;4946893;28;45659;-74
2023/05/25 11:21:39;;;;;;;;;1.75;1.75;;;;;;;;4937499;28;46089;-76
2023/05/25 11:24:10;;;;;;;;;5.00;5.00;;;;;;;;4946021;28;45790;-76
2023/05/25 11:26:50;;;;;;;;;12.25;4.00;;;;;;;;4945665;28;46525;-74
2023/05/25 11:29:15;;;;;;;;;5.00;5.00;;;;;;;;4946550;28;45746;-76
2023/05/25 11:31:41;;;;;;;;;8.50;5.25;;;;;;;;4950179;28;45507;-75
2023/05/25 11:34:08;;;;;;;;;4.00;4.00;;;;;;;;4955395;28;45793;-75
2023/05/25 11:36:36;;;;;;;;;7.75;5.50;;;;;;;;4961060;28;45828;-73
2023/05/25 11:39:05;;;;;;;;;5.67;5.00;;;;;;;;4953092;28;45739;-75
2023/05/25 11:41:31;;;;;;;;;5.75;4.50;;;;;;;;4939440;28;46182;-75
2023/05/25 11:44:01;;;;;;;;;9.00;7.67;;;;;;;;4946348;28;46626;-75
2023/05/25 11:46:27;;;;;;;;;7.33;4.67;;;;;;;;4938640;28;45500;-74
2023/05/25 11:48:53;;;;;;;;;3.00;2.33;;;;;;;;4938019;28;45591;-74
2023/05/25 11:51:25;;;;;;;;;6.33;4.67;;;;;;;;4936957;28;45772;-75
2023/05/25 11:53:51;;;;;;;;;6.67;5.67;;;;;;;;4948851;28;46560;-75
2023/05/25 11:56:17;;;;;;;;;3.00;3.00;;;;;;;;4960627;28;45746;-74
2023/05/25 11:58:43;;;;;;;;;6.00;4.00;;;;;;;;4955011;28;45803;-75
2023/05/25 12:01:12;;;;;;;;;8.33;5.00;;;;;;;;4951646;28;46621;-72
2023/05/25 12:03:37;;;;;;;;;7.67;5.67;;;;;;;;4961332;28;47466;-74
2023/05/25 12:06:03;;;;;;;;;5.00;4.00;;;;;;;;4952047;28;45531;-74
2023/05/25 12:08:32;;;;;;;;;5.00;3.67;;;;;;;;4953370;28;45893;-76
2023/05/25 12:10:57;;;;;;;;;7.00;4.67;;;;;;;;4951722;28;45716;-75
2023/05/25 12:13:23;;;;;;;;;4.00;4.00;;;;;;;;4940120;28;45642;-75
2023/05/25 12:15:48;;;;;;;;;4.67;3.67;;;;;;;;4952288;28;45543;-74
2023/05/25 12:18:13;;;;;;;;;4.33;4.00;;;;;;;;4947988;28;46013;-76
2023/05/25 12:20:40;;;;;;;;;7.00;4.33;;;;;;;;4942318;28;46106;-76
2023/05/25 12:23:05;;;;;;;;;7.67;6.00;;;;;;;;4946880;28;46990;-75
2023/05/25 12:25:30;;;;;;;;;6.33;5.00;;;;;;;;4952644;28;45488;-76
2023/05/25 12:28:12;;;;;;;;;4.00;4.00;;;;;;;;4951813;28;45814;-76
2023/05/25 12:30:38;;;;;;;;;6.00;3.33;;;;;;;;4954852;28;45806;-74
2023/05/25 12:33:03;;;;;;;;;3.00;2.00;;;;;;;;4954310;28;47173;-74
2023/05/25 12:35:29;;;;;;;;;6.00;6.00;;;;;;;;4947008;28;45769;-75
2023/05/25 12:38:14;;;;;;;;;4.67;4.67;;;;;;;;4940971;28;45596;-76
2023/05/25 12:40:40;;;;;;;;;7.67;3.67;;;;;;;;4951830;28;45583;-74
2023/05/25 12:43:05;;;;;;;;;7.00;5.00;;;;;;;;4945528;28;46729;-75
2023/05/25 12:45:30;;;;;;;;;5.33;4.33;;;;;;;;4951499;28;45738;-75
2023/05/25 12:47:56;;;;;;;;;4.00;4.00;;;;;;;;4947280;28;45485;-77
2023/05/25 12:50:21;;;;;;;;;3.33;3.33;;;;;;;;4944171;28;47007;-73
2023/05/25 12:52:47;;;;;;;;;5.33;3.00;;;;;;;;4939410;28;45911;-75
2023/05/25 12:55:25;;;;;;;;;4.00;3.33;;;;;;;;4948921;28;45826;-74
2023/05/25 12:57:51;;;;;;;;;3.33;2.67;;;;;;;;4953252;28;45436;-76
2023/05/25 13:00:22;;;;;;;;;3.00;3.00;;;;;;;;4950165;28;45903;-75
2023/05/25 13:02:47;;;;;;;;;4.00;4.00;;;;;;;;4945610;28;46293;-74
2023/05/25 13:05:22;;;;;;;;;3.67;3.67;;;;;;;;4945113;28;45837;-74
2023/05/25 13:07:47;;;;;;;;;7.33;4.67;;;;;;;;4950132;28;45807;-75
2023/05/25 13:10:13;;;;;;;;;9.67;5.00;;;;;;;;4950561;28;45575;-75
2023/05/25 13:12:39;;;;;;;;;3.00;1.67;;;;;;;;4951186;28;45529;-75
2023/05/25 13:15:04;;;;;;;;;17.00;12.00;;;;;;;;4950872;28;45867;-77
2023/05/25 13:17:29;;;;;;;;;10.00;8.33;;;;;;;;4950139;28;45901;-77
2023/05/25 13:19:55;;;;;;;;;9.67;6.67;;;;;;;;4951750;28;46036;-74
2023/05/25 13:22:20;;;;;;;;;14.67;7.67;;;;;;;;4947641;28;45746;-76
2023/05/25 13:24:45;;;;;;;;;12.33;8.00;;;;;;;;4952063;28;45459;-74
2023/05/25 13:27:11;;;;;;;;;8.33;6.33;;;;;;;;4951380;28;45893;-74
2023/05/25 13:29:36;;;;;;;;;6.67;5.33;;;;;;;;4956699;28;45493;-74
2023/05/25 13:32:01;;;;;;;;;8.00;7.00;;;;;;;;4958660;28;46936;-75
2023/05/25 13:34:26;;;;;;;;;11.00;9.00;;;;;;;;4949266;28;45463;-75
2023/05/25 13:36:51;;;;;;;;;9.33;8.33;;;;;;;;4949931;28;45609;-75
2023/05/25 13:39:17;;;;;;;;;11.00;8.67;;;;;;;;4943442;28;45701;-75
2023/05/25 13:41:42;;;;;;;;;5.67;5.00;;;;;;;;4944654;28;45836;-75
2023/05/25 13:44:09;;;;;;;;;7.00;6.00;;;;;;;;4948667;28;45510;-75
2023/05/25 13:46:36;;;;;;;;;10.00;8.33;;;;;;;;4959818;28;45428;-74
2023/05/25 13:49:02;;;;;;;;;9.00;7.67;;;;;;;;4954834;28;45807;-76
2023/05/25 13:51:27;;;;;;;;;9.00;6.33;;;;;;;;4961410;28;45696;-75
2023/05/25 13:53:52;;;;;;;;;11.67;8.67;;;;;;;;4953704;28;45777;-77
2023/05/25 13:56:18;;;;;;;;;13.00;13.00;;;;;;;;4947589;28;45895;-74
2023/05/25 13:58:43;;;;;;;;;11.33;10.33;;;;;;;;4955203;28;45746;-74
2023/05/25 14:01:08;;;;;;;;;8.00;8.00;;;;;;;;4949688;28;45605;-73
2023/05/25 14:03:33;;;;;;;;;5.33;4.67;;;;;;;;4952296;28;45507;-74
2023/05/25 14:05:59;;;;;;;;;8.33;7.33;;;;;;;;4952742;28;45396;-75
2023/05/25 14:08:24;;;;;;;;;8.33;8.33;;;;;;;;4946326;28;45701;-74
2023/05/25 14:10:51;;;;;;;;;7.33;6.00;;;;;;;;4954302;28;45853;-73
2023/05/25 14:13:16;;;;;;;;;5.67;5.00;;;;;;;;4953211;28;45417;-73
2023/05/25 14:15:42;;;;;;;;;10.00;8.00;;;;;;;;4946011;28;45685;-75
2023/05/25 14:18:07;;;;;;;;;8.67;7.00;;;;;;;;4954410;28;45731;-74
2023/05/25 14:20:35;;;;;;;;;10.00;8.00;;;;;;;;4954514;28;46334;-75
2023/05/25 14:23:01;;;;;;;;;5.67;5.67;;;;;;;;4939370;28;45579;-74
2023/05/25 14:25:26;;;;;;;;;9.00;7.67;;;;;;;;4943206;28;45501;-74